createdAt,value
2023-03-01T00:01:30.419Z,68.03
2023-03-01T00:03:58.738Z,68.13
2023-03-01T00:06:34.441Z,68.24
2023-03-01T00:09:08.800Z,68.84
2023-03-01T00:11:36.147Z,68.64
2023-03-01T00:14:06.041Z,68.71
2023-03-01T00:16:43.738Z,69.43
2023-03-01T00:19:18.473Z,69.26
2023-03-01T00:21:52.548Z,68.75
2023-03-01T00:24:19.822Z,68.94
2023-03-01T00:26:54.944Z,69.48
2023-03-01T00:29:22.535Z,69.01
2023-03-01T00:31:56.639Z,70.08
2023-03-01T00:34:30.831Z,70.57
2023-03-01T00:37:12.896Z,71.72
2023-03-01T00:39:50.459Z,71.15
2023-03-01T00:42:25.802Z,70.40
2023-03-01T00:44:53.296Z,70.61
2023-03-01T00:47:20.640Z,70.83
2023-03-01T00:49:54.597Z,70.53
2023-03-01T00:52:23.364Z,71.03
2023-03-01T00:54:59.415Z,70.75
2023-03-01T00:57:26.723Z,70.29
2023-03-01T01:00:00.468Z,70.43
2023-03-01T01:02:37.615Z,70.39
2023-03-01T01:05:13.787Z,70.11
2023-03-01T01:07:41.136Z,70.11
2023-03-01T01:10:17.290Z,70.60
2023-03-01T01:12:48.058Z,70.90
2023-03-01T01:15:25.186Z,71.01
2023-03-01T01:17:53.120Z,70.93
2023-03-01T01:20:28.629Z,71.18
2023-03-01T01:22:56.732Z,70.91
2023-03-01T01:25:34.961Z,71.11
2023-03-01T01:28:02.889Z,71.14
2023-03-01T01:30:30.343Z,71.17
2023-03-01T01:33:04.754Z,70.54
2023-03-01T01:35:32.867Z,71.20
2023-03-01T01:38:08.724Z,72.20
2023-03-01T01:40:54.282Z,71.98
2023-03-01T01:43:36.173Z,71.37
2023-03-01T01:46:14.982Z,71.17
2023-03-01T01:49:13.619Z,71.72
2023-03-01T01:51:52.637Z,72.19
2023-03-01T01:54:26.294Z,71.92
2023-03-01T01:57:06.013Z,71.71
2023-03-01T01:59:41.899Z,71.55
2023-03-01T02:02:13.997Z,71.66
2023-03-01T02:04:48.673Z,71.74
2023-03-01T02:07:19.411Z,72.24
2023-03-01T02:10:30.041Z,71.59
2023-03-01T02:12:58.683Z,71.42
2023-03-01T02:15:40.928Z,71.26
2023-03-01T02:18:17.832Z,71.04
2023-03-01T02:21:14.613Z,71.22
2023-03-01T02:23:49.642Z,70.88
2023-03-01T02:26:21.752Z,71.14
2023-03-01T02:28:57.166Z,71.17
2023-03-01T02:31:49.651Z,71.07
2023-03-01T02:34:21.769Z,71.34
2023-03-01T02:36:58.930Z,70.93
2023-03-01T02:39:50.612Z,71.07
2023-03-01T02:42:26.816Z,71.01
2023-03-01T02:45:02.189Z,71.35
2023-03-01T02:47:37.340Z,71.50
2023-03-01T02:50:40.370Z,71.42
2023-03-01T02:53:41.209Z,71.33
2023-03-01T02:56:14.532Z,71.17
2023-03-01T02:58:53.755Z,71.11
2023-03-01T03:01:28.693Z,71.45
2023-03-01T03:03:56.779Z,71.40
2023-03-01T03:06:35.672Z,71.57
2023-03-01T03:09:11.868Z,71.61
2023-03-01T03:11:42.329Z,71.96
2023-03-01T03:14:23.842Z,72.06
2023-03-01T03:16:52.036Z,71.92
2023-03-01T03:19:27.790Z,72.12
2023-03-01T03:21:56.606Z,72.10
2023-03-01T03:24:31.919Z,72.08
2023-03-01T03:26:59.894Z,71.60
2023-03-01T03:29:35.723Z,72.22
2023-03-01T03:32:08.271Z,72.45
2023-03-01T03:34:43.778Z,71.58
2023-03-01T03:37:32.299Z,72.07
2023-03-01T03:40:25.283Z,71.96
2023-03-01T03:43:01.125Z,71.78
2023-03-01T03:45:30.079Z,71.98
2023-03-01T03:48:06.246Z,72.18
2023-03-01T03:50:37.256Z,72.35
2023-03-01T03:53:17.022Z,72.69
2023-03-01T03:55:46.228Z,72.59
2023-03-01T03:58:21.202Z,72.91
2023-03-01T04:00:51.988Z,72.80
2023-03-01T04:03:30.108Z,72.94
2023-03-01T04:06:10.821Z,72.96
2023-03-01T04:08:46.351Z,72.55
2023-03-01T04:11:30.346Z,72.34
2023-03-01T04:14:08.230Z,71.90
2023-03-01T04:16:37.041Z,73.36
2023-03-01T04:19:12.100Z,73.20
2023-03-01T04:21:40.840Z,72.98
2023-03-01T04:24:17.362Z,72.87
2023-03-01T04:26:46.443Z,73.08
2023-03-01T04:29:21.351Z,73.27
2023-03-01T04:32:04.405Z,73.22
2023-03-01T04:34:32.427Z,73.17
2023-03-01T04:37:09.318Z,73.10
2023-03-01T04:39:58.009Z,73.32
2023-03-01T04:42:33.989Z,73.12
2023-03-01T04:45:02.818Z,73.14
2023-03-01T04:47:37.926Z,73.14
2023-03-01T04:50:09.515Z,73.36
2023-03-01T04:52:47.128Z,73.59
2023-03-01T04:55:16.944Z,73.05
2023-03-01T04:57:52.490Z,73.31
2023-03-01T05:00:25.213Z,73.27
2023-03-01T05:03:04.275Z,73.06
2023-03-01T05:05:42.111Z,73.15
2023-03-01T05:08:18.298Z,73.28
2023-03-01T05:11:12.641Z,73.25
2023-03-01T05:13:43.251Z,73.04
2023-03-01T05:16:19.437Z,73.27
2023-03-01T05:18:48.491Z,73.35
2023-03-01T05:21:30.437Z,73.50
2023-03-01T05:24:00.227Z,73.57
2023-03-01T05:26:38.099Z,73.28
2023-03-01T05:29:07.681Z,73.23
2023-03-01T05:31:42.162Z,73.48
2023-03-01T05:34:16.870Z,73.25
2023-03-01T05:36:51.909Z,73.40
2023-03-01T05:39:28.218Z,73.50
2023-03-01T05:42:11.350Z,74.07
2023-03-01T05:44:40.440Z,74.34
2023-03-01T05:47:17.442Z,73.82
2023-03-01T05:49:45.712Z,73.94
2023-03-01T05:52:21.205Z,74.04
2023-03-01T05:54:50.104Z,73.92
2023-03-01T05:57:25.229Z,73.98
2023-03-01T05:59:54.530Z,74.20
2023-03-01T06:02:29.486Z,74.41
2023-03-01T06:04:58.121Z,74.57
2023-03-01T06:07:34.224Z,74.48
2023-03-01T06:13:12.436Z,74.52
2023-03-01T06:15:42.982Z,74.69
2023-03-01T06:18:18.826Z,75.01
2023-03-01T06:20:55.317Z,74.84
2023-03-01T06:23:32.017Z,74.92
2023-03-01T06:26:18.965Z,74.78
2023-03-01T06:28:58.760Z,74.90
2023-03-01T06:31:30.475Z,74.65
2023-03-01T06:34:10.599Z,74.85
2023-03-01T06:36:47.508Z,74.74
2023-03-01T06:39:23.561Z,74.52
2023-03-01T06:42:07.372Z,74.59
2023-03-01T06:44:37.418Z,74.84
2023-03-01T06:47:13.884Z,74.99
2023-03-01T06:49:43.788Z,74.51
2023-03-01T07:41:43.280Z,71.57
2023-03-01T07:47:13.356Z,71.33
2023-03-01T07:49:58.651Z,71.45
2023-03-01T07:52:38.484Z,71.31
2023-03-01T07:55:58.682Z,71.22
2023-03-01T07:59:03.400Z,71.03
2023-03-01T08:17:01.936Z,68.87
2023-03-01T10:04:56.540Z,43.10
2023-03-01T10:55:54.752Z,38.71
2023-03-01T10:58:47.436Z,38.16
2023-03-01T11:09:02.795Z,38.68
2023-03-01T11:11:46.162Z,38.35
2023-03-01T11:17:53.626Z,36.27
2023-03-01T11:20:49.934Z,38.85
2023-03-01T11:23:49.110Z,38.37
2023-03-01T11:26:32.115Z,37.58
2023-03-01T11:29:14.686Z,38.30
2023-03-01T11:32:23.243Z,37.77
2023-03-01T11:35:11.548Z,36.85
2023-03-01T11:38:16.376Z,36.24
2023-03-01T11:41:07.931Z,35.99
2023-03-01T11:43:47.609Z,37.05
2023-03-01T11:46:40.765Z,36.32
2023-03-01T11:53:15.602Z,36.22
2023-03-01T11:56:11.934Z,36.88
2023-03-01T11:59:30.310Z,33.99
2023-03-01T12:02:13.566Z,34.82
2023-03-01T12:05:05.633Z,35.91
2023-03-01T12:08:06.791Z,35.88
2023-03-01T12:11:06.607Z,34.50
2023-03-01T12:14:03.750Z,34.03
2023-03-01T12:17:13.825Z,35.20
2023-03-01T12:20:31.710Z,35.26
2023-03-01T12:23:20.796Z,35.37
2023-03-01T12:26:09.593Z,35.44
2023-03-01T12:28:39.814Z,35.66
2023-03-01T12:31:54.845Z,36.22
2023-03-01T12:35:01.862Z,34.40
2023-03-01T12:37:40.008Z,34.76
2023-03-01T12:40:39.865Z,34.70
2023-03-01T12:43:39.406Z,34.08
2023-03-01T12:46:19.928Z,34.92
2023-03-01T12:49:13.038Z,35.00
2023-03-01T12:52:04.342Z,33.58
2023-03-01T12:54:47.676Z,33.30
2023-03-01T12:57:47.795Z,33.21
2023-03-01T13:00:46.774Z,31.93
2023-03-01T13:03:55.904Z,33.51
2023-03-01T13:07:02.890Z,32.97
2023-03-01T13:09:53.855Z,31.71
2023-03-01T13:12:51.926Z,32.88
2023-03-01T13:15:34.055Z,32.78
2023-03-01T13:18:11.897Z,32.52
2023-03-01T13:21:01.749Z,32.14
2023-03-01T13:23:43.830Z,30.97
2023-03-01T13:26:25.670Z,30.82
2023-03-01T13:28:58.615Z,31.70
2023-03-01T13:31:39.054Z,31.61
2023-03-01T13:34:28.430Z,31.58
2023-03-01T13:37:18.724Z,32.29
2023-03-01T13:39:48.736Z,31.38
2023-03-01T13:43:04.617Z,30.15
2023-03-01T13:45:51.746Z,31.36
2023-03-01T13:48:43.030Z,29.96
2023-03-01T13:51:16.889Z,30.82
2023-03-01T13:54:02.142Z,30.62
2023-03-01T13:56:50.287Z,31.72
2023-03-01T13:59:29.801Z,32.34
2023-03-01T14:02:12.571Z,32.03
2023-03-01T14:04:53.386Z,32.22
2023-03-01T14:07:25.650Z,32.91
2023-03-01T14:10:05.902Z,33.33
2023-03-01T14:13:15.629Z,33.15
2023-03-01T14:16:21.640Z,33.26
2023-03-01T14:19:20.308Z,32.31
2023-03-01T14:22:11.813Z,32.82
2023-03-01T14:24:55.922Z,32.90
2023-03-01T14:27:24.843Z,32.13
2023-03-01T14:30:08.021Z,33.11
2023-03-01T14:32:41.785Z,33.08
2023-03-01T14:35:50.667Z,32.19
2023-03-01T14:38:41.149Z,32.86
2023-03-01T14:41:35.545Z,32.98
2023-03-01T14:44:08.245Z,32.33
2023-03-01T14:46:49.838Z,31.71
2023-03-01T14:49:33.418Z,31.25
2023-03-01T14:52:28.471Z,32.80
2023-03-01T14:54:56.783Z,32.81
2023-03-01T14:57:37.582Z,31.94
2023-03-01T15:00:21.246Z,31.80
2023-03-01T15:03:09.877Z,31.64
2023-03-01T15:05:43.811Z,32.09
2023-03-01T15:08:27.021Z,31.79
2023-03-01T15:11:23.609Z,31.60
2023-03-01T15:13:57.732Z,32.45
2023-03-01T15:16:38.024Z,32.35
2023-03-01T15:19:25.957Z,31.99
2023-03-01T15:21:53.297Z,32.31
2023-03-01T15:24:37.972Z,33.17
2023-03-01T15:27:08.437Z,33.72
2023-03-01T15:29:52.729Z,33.64
2023-03-01T15:32:50.784Z,33.76
2023-03-01T15:35:44.311Z,33.83
2023-03-01T15:38:44.375Z,34.67
2023-03-01T15:41:40.722Z,35.10
2023-03-01T15:44:43.703Z,34.41
2023-03-01T15:47:47.568Z,33.94
2023-03-01T15:50:29.804Z,33.42
2023-03-01T15:53:08.668Z,34.09
2023-03-01T15:55:41.787Z,35.03
2023-03-01T15:58:27.255Z,35.68
2023-03-01T16:01:05.115Z,36.36
2023-03-01T16:03:43.793Z,37.20
2023-03-01T16:06:23.798Z,38.14
2023-03-01T16:08:54.535Z,38.30
2023-03-01T16:11:48.439Z,38.97
2023-03-01T16:14:21.515Z,39.60
2023-03-01T16:16:55.916Z,40.25
2023-03-01T16:19:47.029Z,40.87
2023-03-01T16:22:35.155Z,41.69
2023-03-01T16:25:09.931Z,42.45
2023-03-01T16:27:49.462Z,43.16
2023-03-01T16:30:28.066Z,42.84
2023-03-01T16:33:27.400Z,43.18
2023-03-01T16:36:20.687Z,43.12
2023-03-01T16:38:59.550Z,43.39
2023-03-01T16:41:35.354Z,44.08
2023-03-01T16:44:10.345Z,44.48
2023-03-01T16:46:50.346Z,44.50
2023-03-01T16:49:29.109Z,44.32
2023-03-01T16:52:09.862Z,44.92
2023-03-01T16:57:35.037Z,45.25
2023-03-01T17:00:14.291Z,45.23
2023-03-01T17:09:12.038Z,45.64
2023-03-01T17:12:10.420Z,45.99
2023-03-01T17:15:01.349Z,46.44
2023-03-01T17:17:46.449Z,46.89
2023-03-01T17:20:38.699Z,46.95
2023-03-01T17:26:04.990Z,47.32
2023-03-01T17:28:40.339Z,47.16
2023-03-01T17:31:12.020Z,47.01
2023-03-01T17:33:57.891Z,47.86
2023-03-01T17:36:38.616Z,48.16
2023-03-01T17:39:16.191Z,48.03
2023-03-01T17:41:52.070Z,48.40
2023-03-01T17:44:45.952Z,48.60
2023-03-01T17:47:21.303Z,48.72
2023-03-01T17:49:54.247Z,48.84
2023-03-01T17:52:50.524Z,48.97
2023-03-01T17:55:29.250Z,49.92
2023-03-01T17:58:14.206Z,49.66
2023-03-01T18:00:44.928Z,49.13
2023-03-01T18:10:41.931Z,49.58
2023-03-01T18:13:27.481Z,50.00
2023-03-01T18:16:17.799Z,49.61
2023-03-01T18:25:01.872Z,50.42
2023-03-01T18:27:38.269Z,50.35
2023-03-01T18:33:10.619Z,50.57
2023-03-01T18:35:57.637Z,50.99
2023-03-01T18:45:04.269Z,51.33
2023-03-01T18:47:44.218Z,51.41
2023-03-01T18:50:15.892Z,51.88
2023-03-01T18:53:03.887Z,53.41
2023-03-01T18:55:44.090Z,52.75
2023-03-01T18:58:29.481Z,53.11
2023-03-01T19:01:23.786Z,53.45
2023-03-01T19:03:59.664Z,52.85
2023-03-01T19:06:42.528Z,53.22
2023-03-01T19:09:25.835Z,53.53
2023-03-01T19:12:05.878Z,54.02
2023-03-01T19:14:47.352Z,53.45
2023-03-01T19:17:37.435Z,53.38
2023-03-01T19:20:08.011Z,53.29
2023-03-01T19:31:39.264Z,54.21
2023-03-01T19:34:11.797Z,53.59
2023-03-01T19:37:10.520Z,54.06
2023-03-01T19:39:47.332Z,54.57
2023-03-01T19:42:22.136Z,54.76
2023-03-01T19:44:59.423Z,54.90
2023-03-01T20:01:24.436Z,56.41
2023-03-01T20:04:29.423Z,56.00
2023-03-01T20:07:10.217Z,56.56
2023-03-01T20:09:49.048Z,56.96
2023-03-01T20:12:17.010Z,56.56
2023-03-01T20:17:50.546Z,57.32
2023-03-01T20:33:25.561Z,58.06
2023-03-01T20:39:46.968Z,58.09
2023-03-01T20:42:23.395Z,58.02
2023-03-01T20:44:58.881Z,58.53
2023-03-01T20:50:34.683Z,59.79
2023-03-01T20:53:13.531Z,60.42
2023-03-01T20:58:44.143Z,60.74
2023-03-01T21:01:25.175Z,60.99
2023-03-01T21:04:12.103Z,61.11
2023-03-01T21:14:01.177Z,60.41
2023-03-01T21:28:53.852Z,61.17
2023-03-01T21:37:15.003Z,63.59
2023-03-01T21:53:12.988Z,64.32
2023-03-01T22:35:52.003Z,74.69
2023-03-01T22:42:17.001Z,75.39
2023-03-01T22:45:03.013Z,75.33
2023-03-01T23:06:23.792Z,78.80
